createdAt,value
2018-11-05T00:00:25.459Z,12.30
2018-11-05T00:02:54.229Z,11.95
2018-11-05T00:05:23.383Z,12.35
2018-11-05T00:07:52.563Z,11.10
2018-11-05T00:10:21.543Z,11.88
2018-11-05T00:12:50.662Z,11.05
2018-11-05T00:15:20.092Z,13.55
2018-11-05T00:17:49.335Z,12.80
2018-11-05T00:20:18.634Z,14.10
2018-11-05T00:22:48.078Z,13.78
2018-11-05T00:25:17.402Z,14.55
2018-11-05T00:27:46.633Z,14.53
2018-11-05T00:30:16.431Z,13.85
2018-11-05T00:32:45.567Z,14.33
2018-11-05T00:35:14.835Z,14.43
2018-11-05T00:37:44.076Z,15.40
2018-11-05T00:40:14.155Z,15.55
2018-11-05T00:42:44.050Z,16.93
2018-11-05T00:45:13.565Z,17.75
2018-11-05T00:47:43.287Z,14.23
2018-11-05T00:50:14.081Z,17.82
2018-11-05T00:52:43.354Z,17.27
2018-11-05T00:55:13.190Z,16.30
2018-11-05T00:57:42.251Z,16.25
2018-11-05T01:00:17.181Z,16.02
2018-11-05T01:02:46.202Z,19.17
2018-11-05T01:05:16.494Z,19.90
2018-11-05T01:07:46.283Z,19.25
2018-11-05T01:10:16.219Z,21.23
2018-11-05T01:12:45.171Z,20.50
2018-11-05T01:15:16.614Z,21.73
2018-11-05T01:17:45.678Z,21.20
2018-11-05T01:20:15.565Z,22.10
2018-11-05T01:22:44.627Z,22.85
2018-11-05T01:25:13.718Z,21.93
2018-11-05T01:27:42.883Z,22.77
2018-11-05T01:30:13.748Z,22.25
2018-11-05T01:32:42.819Z,22.73
2018-11-05T01:35:13.065Z,21.80
2018-11-05T01:37:42.575Z,21.27
2018-11-05T01:40:14.371Z,23.42
2018-11-05T01:42:43.987Z,21.82
2018-11-05T01:45:14.071Z,22.25
2018-11-05T01:47:43.618Z,21.73
2018-11-05T01:50:14.340Z,23.05
2018-11-05T01:52:44.084Z,22.22
2018-11-05T01:55:13.364Z,23.35
2018-11-05T01:57:42.870Z,23.30
2018-11-05T02:00:14.708Z,22.15
2018-11-05T02:02:44.638Z,22.75
2018-11-05T02:05:13.873Z,22.62
2018-11-05T02:07:44.203Z,22.32
2018-11-05T02:10:16.868Z,22.65
2018-11-05T02:12:46.188Z,22.90
2018-11-05T02:15:15.469Z,22.70
2018-11-05T02:17:46.077Z,21.27
2018-11-05T02:20:16.135Z,21.62
2018-11-05T02:22:45.054Z,20.92
2018-11-05T02:25:14.846Z,20.80
2018-11-05T02:27:44.064Z,18.85
2018-11-05T02:30:16.419Z,15.32
2018-11-05T02:32:45.907Z,16.05
2018-11-05T02:35:15.863Z,16.37
2018-11-05T02:37:45.724Z,13.98
2018-11-05T02:40:15.913Z,15.95
2018-11-05T02:42:45.459Z,16.23
2018-11-05T02:45:15.519Z,16.82
2018-11-05T02:47:44.602Z,14.43
2018-11-05T02:50:14.486Z,15.20
2018-11-05T02:52:44.927Z,15.28
2018-11-05T02:55:13.974Z,15.88
2018-11-05T02:57:43.030Z,14.30
2018-11-05T03:00:14.577Z,14.10
2018-11-05T03:02:43.723Z,13.40
2018-11-05T03:05:14.842Z,13.80
2018-11-05T03:07:44.945Z,12.40
2018-11-05T03:10:14.478Z,13.53
2018-11-05T03:12:44.302Z,13.83
2018-11-05T03:15:14.731Z,15.75
2018-11-05T03:17:43.814Z,16.10
2018-11-05T03:20:14.018Z,15.05
2018-11-05T03:22:43.903Z,14.95
2018-11-05T03:25:13.130Z,17.00
2018-11-05T03:27:42.534Z,17.05
2018-11-05T03:30:14.115Z,16.80
2018-11-05T03:32:43.285Z,18.23
2018-11-05T03:35:13.193Z,17.17
2018-11-05T03:37:43.827Z,18.35
2018-11-05T03:40:13.642Z,19.32
2018-11-05T03:42:43.300Z,19.55
2018-11-05T03:45:13.967Z,19.82
2018-11-05T03:47:43.193Z,21.90
2018-11-05T03:50:15.537Z,21.90
2018-11-05T03:52:45.262Z,23.20
2018-11-05T03:55:15.325Z,24.40
2018-11-05T03:57:44.614Z,22.82
2018-11-05T04:00:15.282Z,22.85
2018-11-05T04:02:44.517Z,23.70
2018-11-05T04:05:13.763Z,24.32
2018-11-05T04:07:42.829Z,24.50
2018-11-05T04:10:12.846Z,25.68
2018-11-05T04:12:42.205Z,23.98
2018-11-05T04:15:11.617Z,23.47
2018-11-05T04:17:40.651Z,24.05
2018-11-05T04:20:11.829Z,27.73
2018-11-05T04:22:41.295Z,29.20
2018-11-05T04:25:10.443Z,29.25
2018-11-05T04:27:39.610Z,29.72
2018-11-05T04:30:10.997Z,28.27
2018-11-05T04:32:40.457Z,25.75
2018-11-05T04:35:10.004Z,27.37
2018-11-05T04:37:39.131Z,25.27
2018-11-05T04:40:09.783Z,24.55
2018-11-05T04:42:38.913Z,24.87
2018-11-05T04:45:09.403Z,24.98
2018-11-05T04:47:38.848Z,26.42
2018-11-05T04:50:09.334Z,25.72
2018-11-05T04:52:38.960Z,25.45
2018-11-05T04:55:08.500Z,26.23
2018-11-05T04:57:37.782Z,25.12
2018-11-05T05:00:12.368Z,26.40
2018-11-05T05:02:42.519Z,26.23
2018-11-05T05:05:12.946Z,24.15
2018-11-05T05:07:42.599Z,24.37
2018-11-05T05:10:12.072Z,23.73
2018-11-05T05:12:42.167Z,23.47
2018-11-05T05:15:11.958Z,25.57
2018-11-05T05:17:41.504Z,23.12
2018-11-05T05:20:13.275Z,23.98
2018-11-05T05:22:42.908Z,25.48
2018-11-05T05:25:11.960Z,27.02
2018-11-05T05:27:41.606Z,25.32
2018-11-05T05:30:13.570Z,25.08
2018-11-05T05:32:43.054Z,25.65
2018-11-05T05:35:12.410Z,25.40
2018-11-05T05:37:42.230Z,26.27
2018-11-05T05:40:11.500Z,26.42
2018-11-05T05:42:41.281Z,23.18
2018-11-05T05:45:11.594Z,22.80
2018-11-05T05:47:41.131Z,22.52
2018-11-05T05:50:16.725Z,21.00
2018-11-05T05:52:47.300Z,23.20
2018-11-05T05:57:57.290Z,23.07
2018-11-05T06:00:26.451Z,23.32
2018-11-05T06:02:55.447Z,20.90
2018-11-05T06:05:24.574Z,27.75
2018-11-05T06:07:53.747Z,24.07
2018-11-05T06:10:23.129Z,22.87
2018-11-05T06:12:52.574Z,21.85
2018-11-05T06:15:21.662Z,22.58
2018-11-05T06:17:50.848Z,22.55
2018-11-05T06:20:21.046Z,23.02
2018-11-05T06:22:50.634Z,27.15
2018-11-05T06:25:19.793Z,24.67
2018-11-05T06:27:49.108Z,21.85
2018-11-05T06:30:20.496Z,22.58
2018-11-05T06:32:50.570Z,22.70
2018-11-05T06:35:20.297Z,21.68
2018-11-05T06:37:49.447Z,22.80
2018-11-05T06:40:19.996Z,22.05
2018-11-05T06:42:49.293Z,23.18
2018-11-05T06:45:19.673Z,23.42
2018-11-05T06:47:49.576Z,23.70
2018-11-05T06:50:21.698Z,25.05
2018-11-05T06:52:51.170Z,29.15
2018-11-05T06:55:20.416Z,30.02
2018-11-05T06:57:49.859Z,31.35
2018-11-05T07:00:21.288Z,30.32
2018-11-05T07:02:50.467Z,29.02
2018-11-05T07:05:19.818Z,31.70
2018-11-05T07:07:49.372Z,32.35
2018-11-05T07:10:19.020Z,32.48
2018-11-05T07:12:48.191Z,27.02
2018-11-05T07:15:18.574Z,30.75
2018-11-05T07:17:48.558Z,29.60
2018-11-05T07:20:18.841Z,31.45
2018-11-05T07:22:49.279Z,28.57
2018-11-05T07:25:18.379Z,26.75
2018-11-05T07:27:47.623Z,25.60
2018-11-05T07:30:19.155Z,24.65
2018-11-05T07:32:49.154Z,26.80
2018-11-05T07:35:18.150Z,24.80
2018-11-05T07:37:47.670Z,25.75
2018-11-05T07:40:17.758Z,23.30
2018-11-05T07:42:47.005Z,23.65
2018-11-05T07:45:18.303Z,24.47
2018-11-05T07:47:47.825Z,25.05
2018-11-05T07:50:18.098Z,22.02
2018-11-05T07:52:47.493Z,20.85
2018-11-05T07:55:17.578Z,21.90
2018-11-05T07:57:47.590Z,20.52
2018-11-05T08:00:22.459Z,23.77
2018-11-05T08:02:53.302Z,21.70
2018-11-05T08:05:23.126Z,26.07
2018-11-05T08:07:52.431Z,21.62
2018-11-05T08:10:21.611Z,22.37
2018-11-05T08:12:50.942Z,21.90
2018-11-05T08:15:21.730Z,20.88
2018-11-05T08:17:51.733Z,17.02
2018-11-05T08:20:20.878Z,12.82
2018-11-05T08:22:50.484Z,13.00
2018-11-05T08:25:19.586Z,13.15
2018-11-05T08:27:49.455Z,12.35
2018-11-05T08:30:21.190Z,11.63
2018-11-05T08:32:50.288Z,12.78
2018-11-05T08:35:19.622Z,12.45
2018-11-05T08:37:49.118Z,11.83
2018-11-05T08:40:21.311Z,13.10
2018-11-05T08:42:51.486Z,12.68
2018-11-05T08:45:21.855Z,12.13
2018-11-05T08:47:51.106Z,12.73
2018-11-05T08:50:21.714Z,12.88
2018-11-05T08:52:50.870Z,12.95
2018-11-05T08:55:21.379Z,15.05
2018-11-05T08:57:50.864Z,13.60
2018-11-05T09:00:25.133Z,12.65
2018-11-05T09:02:55.048Z,11.20
2018-11-05T09:05:24.310Z,12.00
2018-11-05T09:07:54.300Z,14.50
2018-11-05T09:10:23.921Z,13.40
2018-11-05T09:12:52.986Z,12.53
2018-11-05T09:15:22.933Z,12.23
2018-11-05T09:17:52.197Z,13.35
2018-11-05T09:20:21.379Z,12.73
2018-11-05T09:22:51.185Z,11.45
2018-11-05T09:25:20.589Z,11.95
2018-11-05T09:27:50.128Z,12.70
2018-11-05T09:30:20.689Z,11.85
2018-11-05T09:32:50.735Z,11.45
2018-11-05T09:35:19.949Z,12.07
2018-11-05T09:37:49.031Z,11.33
2018-11-05T09:40:20.609Z,10.85
2018-11-05T09:42:50.344Z,12.47
2018-11-05T09:45:23.102Z,13.38
2018-11-05T09:47:52.490Z,11.88
2018-11-05T09:50:21.945Z,13.93
2018-11-05T09:52:51.233Z,11.03
2018-11-05T09:55:20.431Z,11.80
2018-11-05T09:57:49.555Z,12.10
2018-11-05T10:00:20.481Z,12.13
2018-11-05T10:02:54.795Z,13.45
2018-11-05T10:05:24.226Z,12.33
2018-11-05T10:07:53.358Z,12.10
2018-11-05T10:10:22.660Z,12.10
2018-11-05T10:12:52.135Z,11.08
2018-11-05T10:15:21.259Z,12.18
2018-11-05T10:17:50.484Z,13.62
2018-11-05T10:20:24.308Z,13.98
2018-11-05T10:22:53.910Z,13.15
2018-11-05T10:25:23.089Z,11.15
2018-11-05T10:27:52.840Z,12.07
2018-11-05T10:30:24.256Z,10.35
2018-11-05T10:32:53.784Z,11.60
2018-11-05T10:35:27.958Z,10.65
2018-11-05T10:37:57.312Z,10.95
2018-11-05T10:40:26.749Z,11.08
2018-11-05T10:42:55.818Z,11.53
2018-11-05T10:45:25.007Z,12.40
2018-11-05T10:47:54.275Z,12.30
2018-11-05T10:50:23.727Z,11.93
2018-11-05T10:52:53.110Z,10.75
2018-11-05T10:55:22.135Z,11.90
2018-11-05T10:57:51.072Z,10.15
2018-11-05T11:00:26.426Z,9.55
2018-11-05T11:03:00.422Z,10.45
2018-11-05T11:05:30.687Z,10.43
2018-11-05T11:08:00.515Z,10.75
2018-11-05T11:10:30.289Z,9.65
2018-11-05T11:13:00.209Z,10.25
2018-11-05T11:15:29.500Z,9.85
2018-11-05T11:17:58.799Z,10.05
2018-11-05T11:20:28.367Z,9.38
2018-11-05T11:22:57.313Z,9.88
2018-11-05T11:25:26.299Z,9.98
2018-11-05T11:27:55.652Z,8.80
2018-11-05T11:30:24.699Z,8.65
2018-11-05T11:32:54.094Z,8.33
2018-11-05T11:35:23.501Z,8.55
2018-11-05T11:37:52.389Z,9.33
2018-11-05T11:40:22.960Z,9.73
2018-11-05T11:42:51.911Z,9.45
2018-11-05T11:45:21.937Z,8.93
2018-11-05T11:47:50.922Z,8.73
2018-11-05T11:50:20.153Z,8.08
2018-11-05T11:52:49.751Z,8.55
2018-11-05T11:55:19.796Z,7.97
2018-11-05T11:57:48.886Z,7.87
2018-11-05T12:00:19.982Z,7.95
2018-11-05T12:02:50.157Z,7.60
2018-11-05T12:05:19.449Z,7.05
2018-11-05T12:07:48.726Z,7.10
2018-11-05T12:10:19.464Z,6.22
2018-11-05T12:12:48.559Z,7.45
2018-11-05T12:15:18.364Z,6.28
2018-11-05T12:17:48.303Z,6.62
2018-11-05T12:20:18.703Z,6.75
2018-11-05T12:22:48.201Z,7.22
2018-11-05T12:25:17.562Z,5.60
2018-11-05T12:27:46.817Z,5.97
2018-11-05T12:30:18.015Z,6.20
2018-11-05T12:32:48.119Z,6.90
2018-11-05T12:35:17.288Z,5.70
2018-11-05T12:37:47.391Z,6.65
2018-11-05T12:40:17.367Z,5.67
2018-11-05T12:42:47.942Z,6.20
2018-11-05T12:45:17.391Z,5.90
2018-11-05T12:47:46.735Z,5.50
2018-11-05T12:50:21.292Z,4.97
2018-11-05T12:52:51.234Z,4.60
2018-11-05T12:55:20.298Z,4.87
2018-11-05T12:57:50.031Z,4.60
2018-11-05T13:00:21.445Z,4.62
2018-11-05T13:02:59.671Z,3.87
2018-11-05T13:05:30.227Z,4.08
2018-11-05T13:07:59.304Z,3.50
2018-11-05T13:10:28.395Z,4.47
2018-11-05T13:12:57.810Z,3.67
2018-11-05T13:15:27.082Z,4.37
2018-11-05T13:17:55.896Z,3.55
2018-11-05T13:20:25.376Z,2.15
2018-11-05T13:22:54.390Z,2.95
2018-11-05T13:25:23.287Z,3.12
2018-11-05T13:27:52.966Z,2.60
2018-11-05T13:30:21.762Z,2.67
2018-11-05T13:32:50.695Z,2.25
2018-11-05T13:35:21.147Z,2.47
2018-11-05T13:37:50.763Z,2.90
2018-11-05T13:40:20.516Z,2.55
2018-11-05T13:42:50.061Z,2.08
2018-11-05T13:45:19.764Z,2.25
2018-11-05T13:47:48.985Z,2.72
2018-11-05T13:50:18.204Z,2.20
2018-11-05T13:52:47.643Z,2.42
2018-11-05T13:55:17.258Z,2.12
2018-11-05T13:57:47.548Z,2.30
2018-11-05T14:00:17.937Z,2.15
2018-11-05T14:02:47.235Z,1.82
2018-11-05T14:05:16.323Z,2.37
2018-11-05T14:07:45.503Z,2.33
2018-11-05T14:10:18.090Z,3.00
2018-11-05T14:12:47.396Z,2.83
2018-11-05T14:15:16.832Z,3.45
2018-11-05T14:17:46.530Z,3.47
2018-11-05T14:20:16.520Z,3.50
2018-11-05T14:22:45.429Z,3.10
2018-11-05T14:25:16.022Z,3.27
2018-11-05T14:27:46.726Z,2.95
2018-11-05T14:30:15.872Z,2.98
2018-11-05T14:32:45.984Z,3.30
2018-11-05T14:35:14.990Z,3.50
2018-11-05T14:37:44.232Z,2.95
2018-11-05T14:40:14.663Z,3.62
2018-11-05T14:42:44.429Z,3.67
2018-11-05T14:45:18.239Z,3.80
2018-11-05T14:47:47.986Z,4.10
2018-11-05T14:50:23.715Z,4.47
2018-11-05T14:52:52.709Z,3.27
2018-11-05T14:55:21.871Z,3.83
2018-11-05T14:57:52.149Z,5.03
2018-11-05T15:00:28.405Z,3.33
2018-11-05T15:02:58.083Z,3.42
2018-11-05T15:05:27.214Z,3.42
2018-11-05T15:07:56.306Z,2.75
2018-11-05T15:10:26.114Z,2.05
2018-11-05T15:12:55.411Z,2.47
2018-11-05T15:15:24.520Z,2.83
2018-11-05T15:17:53.904Z,2.75
2018-11-05T15:20:23.929Z,2.80
2018-11-05T15:22:52.935Z,3.20
2018-11-05T15:25:22.566Z,3.70
2018-11-05T15:27:52.448Z,2.25
2018-11-05T15:30:22.890Z,3.90
2018-11-05T15:32:52.274Z,3.58
2018-11-05T15:35:21.594Z,3.95
2018-11-05T15:37:51.411Z,4.00
2018-11-05T15:40:21.959Z,3.87
2018-11-05T15:42:50.698Z,3.60
2018-11-05T15:45:20.999Z,4.08
2018-11-05T15:47:50.364Z,3.22
2018-11-05T15:50:20.597Z,2.50
2018-11-05T15:52:50.090Z,2.67
2018-11-05T15:55:18.958Z,2.12
2018-11-05T15:57:47.940Z,3.02
2018-11-05T16:00:22.336Z,2.50
2018-11-05T16:02:53.946Z,2.80
2018-11-05T16:05:23.547Z,2.30
2018-11-05T16:07:52.651Z,1.67
2018-11-05T16:10:21.947Z,1.82
2018-11-05T16:12:51.327Z,2.17
2018-11-05T16:15:20.362Z,1.75
2018-11-05T16:17:49.963Z,1.95
2018-11-05T16:20:20.342Z,2.20
2018-11-05T16:22:50.248Z,1.90
2018-11-05T16:25:19.391Z,2.98
2018-11-05T16:27:48.527Z,2.27
2018-11-05T16:30:18.734Z,2.55
2018-11-05T16:32:48.464Z,2.35
2018-11-05T16:35:17.598Z,2.70
2018-11-05T16:37:46.842Z,2.80
2018-11-05T16:40:16.772Z,3.58
2018-11-05T16:42:46.951Z,2.90
2018-11-05T16:45:15.961Z,2.40
2018-11-05T16:47:45.155Z,2.25
2018-11-05T16:50:26.110Z,2.10
2018-11-05T16:52:55.371Z,2.37
2018-11-05T16:55:24.417Z,2.52
2018-11-05T16:57:53.596Z,3.10
2018-11-05T17:00:22.707Z,2.85
2018-11-05T17:02:51.779Z,2.58
2018-11-05T17:05:21.162Z,2.90
2018-11-05T17:07:50.128Z,2.67
2018-11-05T17:10:19.208Z,4.28
2018-11-05T17:12:48.108Z,6.90
2018-11-05T17:15:18.140Z,8.10
2018-11-05T17:17:47.517Z,9.53
2018-11-05T17:20:18.336Z,12.80
2018-11-05T17:22:47.552Z,13.22
2018-11-05T17:25:16.924Z,14.38
2018-11-05T17:27:46.691Z,14.98
2018-11-05T17:30:17.963Z,14.23
2018-11-05T17:32:47.121Z,14.33
2018-11-05T17:35:16.642Z,15.00
2018-11-05T17:37:46.414Z,13.45
2018-11-05T17:40:16.663Z,14.07
2018-11-05T17:42:45.947Z,13.50
2018-11-05T17:45:16.281Z,11.40
2018-11-05T17:47:45.387Z,13.90
2018-11-05T17:50:16.226Z,13.00
2018-11-05T17:52:45.410Z,12.15
2018-11-05T17:55:14.638Z,12.35
2018-11-05T17:57:45.154Z,14.10
2018-11-05T18:00:17.571Z,12.85
2018-11-05T18:02:47.096Z,13.90
2018-11-05T18:05:16.692Z,13.55
2018-11-05T18:07:45.731Z,13.60
2018-11-05T18:10:14.611Z,15.43
2018-11-05T18:12:44.215Z,15.98
2018-11-05T18:15:13.854Z,15.13
2018-11-05T18:17:44.259Z,15.40
2018-11-05T18:20:15.471Z,15.53
2018-11-05T18:22:44.858Z,16.12
2018-11-05T18:25:16.273Z,14.68
2018-11-05T18:27:45.610Z,15.13
2018-11-05T18:30:15.158Z,14.35
2018-11-05T18:32:44.277Z,13.68
2018-11-05T18:35:14.193Z,12.55
2018-11-05T18:37:44.328Z,13.78
2018-11-05T18:40:14.623Z,13.38
2018-11-05T18:42:44.551Z,14.15
2018-11-05T18:45:13.702Z,12.82
2018-11-05T18:47:42.634Z,13.00
2018-11-05T18:50:13.305Z,12.93
2018-11-05T18:52:42.689Z,12.20
2018-11-05T18:55:13.383Z,12.65
2018-11-05T18:57:42.426Z,11.00
2018-11-05T19:00:25.342Z,13.22
2018-11-05T19:02:55.801Z,13.35
2018-11-05T19:05:25.743Z,12.35
2018-11-05T19:07:55.295Z,12.55
2018-11-05T19:10:24.395Z,13.53
2018-11-05T19:12:54.103Z,12.15
2018-11-05T19:15:23.173Z,12.75
2018-11-05T19:17:52.383Z,11.90
2018-11-05T19:20:21.807Z,13.58
2018-11-05T19:22:51.312Z,12.35
2018-11-05T19:25:20.681Z,11.57
2018-11-05T19:27:49.892Z,11.35
2018-11-05T19:30:24.076Z,13.05
2018-11-05T19:32:53.203Z,12.25
2018-11-05T19:35:22.259Z,11.85
2018-11-05T19:37:51.766Z,12.78
2018-11-05T19:40:21.541Z,13.40
2018-11-05T19:42:50.930Z,13.40
2018-11-05T19:45:21.269Z,13.65
2018-11-05T19:47:50.435Z,16.52
2018-11-05T19:50:20.578Z,15.23
2018-11-05T19:52:50.311Z,16.48
2018-11-05T19:55:19.971Z,14.75
2018-11-05T19:57:50.291Z,15.88
2018-11-05T20:00:22.082Z,14.90
2018-11-05T20:02:51.291Z,16.10
2018-11-05T20:05:20.297Z,16.85
2018-11-05T20:07:50.783Z,15.13
2018-11-05T20:10:19.812Z,14.63
2018-11-05T20:12:49.012Z,17.70
2018-11-05T20:15:18.455Z,17.35
2018-11-05T20:17:48.330Z,15.72
2018-11-05T20:20:18.550Z,18.15
2018-11-05T20:22:47.623Z,20.05
2018-11-05T20:25:16.638Z,19.42
2018-11-05T20:27:45.886Z,19.82
2018-11-05T20:30:18.073Z,19.32
2018-11-05T20:32:48.982Z,19.50
2018-11-05T20:35:17.340Z,19.17
2018-11-05T20:37:46.230Z,20.08
2018-11-05T20:40:16.638Z,20.62
2018-11-05T20:42:46.796Z,21.73
2018-11-05T20:45:16.832Z,20.02
2018-11-05T20:47:45.786Z,19.42
2018-11-05T20:50:15.647Z,20.00
2018-11-05T20:52:44.765Z,22.48
2018-11-05T20:55:14.999Z,22.95
2018-11-05T20:57:44.410Z,23.15
2018-11-05T21:00:14.945Z,20.57
2018-11-05T21:02:43.978Z,29.05
2018-11-05T21:05:13.106Z,26.10
2018-11-05T21:07:42.999Z,26.85
2018-11-05T21:10:13.569Z,25.95
2018-11-05T21:12:43.090Z,26.00
2018-11-05T21:15:15.447Z,25.37
2018-11-05T21:17:44.878Z,25.97
2018-11-05T21:20:14.290Z,26.17
2018-11-05T21:22:44.044Z,26.40
2018-11-05T21:25:13.297Z,28.55
2018-11-05T21:27:42.914Z,29.18
2018-11-05T21:30:14.033Z,29.05
2018-11-05T21:32:43.102Z,27.70
2018-11-05T21:35:14.225Z,29.72
2018-11-05T21:37:43.615Z,28.40
2018-11-05T21:40:14.050Z,31.02
2018-11-05T21:42:43.294Z,30.62
2018-11-05T21:45:13.627Z,31.17
2018-11-05T21:47:43.129Z,30.12
2018-11-05T21:50:14.009Z,31.57
2018-11-05T21:52:43.848Z,32.05
2018-11-05T21:55:13.101Z,31.07
2018-11-05T21:57:43.423Z,31.30
2018-11-05T22:00:17.358Z,32.08
2018-11-05T22:02:51.437Z,31.97
2018-11-05T22:05:20.996Z,35.70
2018-11-05T22:07:50.406Z,34.50
2018-11-05T22:10:20.198Z,34.50
2018-11-05T22:12:49.662Z,32.65
2018-11-05T22:15:18.998Z,32.65
2018-11-05T22:17:48.294Z,35.03
2018-11-05T22:20:17.612Z,35.00
2018-11-05T22:22:46.870Z,33.55
2018-11-05T22:25:16.058Z,32.75
2018-11-05T22:27:45.400Z,31.45
2018-11-05T22:30:15.222Z,31.55
2018-11-05T22:32:45.639Z,33.00
2018-11-05T22:35:15.171Z,33.10
2018-11-05T22:37:53.689Z,33.98
2018-11-05T22:40:24.904Z,32.63
2018-11-05T22:42:54.026Z,33.18
2018-11-05T22:45:24.341Z,34.60
2018-11-05T22:47:54.122Z,34.80
2018-11-05T22:50:23.254Z,35.50
2018-11-05T22:52:55.463Z,34.48
2018-11-05T22:55:26.047Z,34.88
2018-11-05T22:57:57.908Z,36.38
2018-11-05T23:00:35.135Z,37.58
2018-11-05T23:03:10.007Z,35.80
2018-11-05T23:05:45.207Z,36.38
2018-11-05T23:08:16.006Z,34.98
2018-11-05T23:10:52.307Z,36.15
2018-11-05T23:13:26.771Z,38.25
2018-11-05T23:15:55.955Z,38.13
2018-11-05T23:18:25.382Z,39.60
2018-11-05T23:20:55.271Z,37.53
2018-11-05T23:23:24.156Z,37.63
2018-11-05T23:25:53.662Z,40.17
2018-11-05T23:28:23.061Z,40.25
2018-11-05T23:30:53.271Z,38.90
2018-11-05T23:33:23.627Z,37.95
2018-11-05T23:35:54.489Z,36.77
2018-11-05T23:38:24.308Z,38.53
2018-11-05T23:40:54.889Z,38.08
2018-11-05T23:43:24.441Z,38.20
2018-11-05T23:45:54.390Z,38.53
2018-11-05T23:48:24.606Z,39.00
2018-11-05T23:50:55.963Z,37.75
2018-11-05T23:53:25.725Z,37.42
2018-11-05T23:55:56.153Z,36.88
2018-11-05T23:58:28.091Z,39.35
